sensor_id;sensor_type;location;lat;lon;timestamp;noise_LAeq;noise_LA_min;noise_LA_max;noise_LA01;noise_LA95
56099;Laerm;44276;49.534;6.378;2024-03-07T00:01:46;42.04;40.13;46.07;;
56099;Laerm;44276;49.534;6.378;2024-03-07T00:04:14;41.95;39.92;43.34;;
56099;Laerm;44276;49.534;6.378;2024-03-07T00:06:44;46.12;40.33;57.21;;
56099;Laerm;44276;49.534;6.378;2024-03-07T00:09:12;43.22;40.53;56.29;;
56099;Laerm;44276;49.534;6.378;2024-03-07T00:11:42;42.40;40.23;47.57;;
56099;Laerm;44276;49.534;6.378;2024-03-07T00:14:12;42.18;40.33;46.38;;
56099;Laerm;44276;49.534;6.378;2024-03-07T00:16:40;42.07;40.43;43.44;;
56099;Laerm;44276;49.534;6.378;2024-03-07T00:19:09;42.06;40.43;43.77;;
56099;Laerm;44276;49.534;6.378;2024-03-07T00:21:37;42.21;40.62;46.05;;
56099;Laerm;44276;49.534;6.378;2024-03-07T00:24:07;42.25;40.33;44.51;;
56099;Laerm;44276;49.534;6.378;2024-03-07T00:26:36;42.12;40.13;43.29;;
56099;Laerm;44276;49.534;6.378;2024-03-07T00:29:04;42.26;40.03;46.05;;
56099;Laerm;44276;49.534;6.378;2024-03-07T00:31:33;42.18;40.33;53.58;;
56099;Laerm;44276;49.534;6.378;2024-03-07T00:34:02;42.28;40.23;44.87;;
56099;Laerm;44276;49.534;6.378;2024-03-07T00:36:42;42.22;40.71;43.49;;
56099;Laerm;44276;49.534;6.378;2024-03-07T00:39:12;42.41;40.80;46.30;;
56099;Laerm;44276;49.534;6.378;2024-03-07T00:41:41;42.58;40.53;49.35;;
56099;Laerm;44276;49.534;6.378;2024-03-07T00:44:09;42.28;40.89;43.90;;
56099;Laerm;44276;49.534;6.378;2024-03-07T00:46:38;42.85;40.62;49.79;;
56099;Laerm;44276;49.534;6.378;2024-03-07T00:49:06;42.40;40.89;45.23;;
56099;Laerm;44276;49.534;6.378;2024-03-07T00:51:34;42.60;40.33;49.83;;
56099;Laerm;44276;49.534;6.378;2024-03-07T00:54:06;42.39;40.80;45.20;;
56099;Laerm;44276;49.534;6.378;2024-03-07T00:56:35;42.84;40.62;50.09;;
56099;Laerm;44276;49.534;6.378;2024-03-07T00:59:04;42.29;40.71;43.49;;
56099;Laerm;44276;49.534;6.378;2024-03-07T01:01:33;42.38;40.53;44.73;;
56099;Laerm;44276;49.534;6.378;2024-03-07T01:04:03;42.37;40.80;43.81;;
56099;Laerm;44276;49.534;6.378;2024-03-07T01:06:32;42.43;40.80;44.03;;
56099;Laerm;44276;49.534;6.378;2024-03-07T01:09:00;42.40;40.71;43.86;;
56099;Laerm;44276;49.534;6.378;2024-03-07T01:11:29;42.42;41.06;43.68;;
56099;Laerm;44276;49.534;6.378;2024-03-07T01:13:58;42.42;40.89;43.63;;
56099;Laerm;44276;49.534;6.378;2024-03-07T01:16:27;42.45;40.80;43.58;;
56099;Laerm;44276;49.534;6.378;2024-03-07T01:18:55;42.63;40.98;48.10;;
56099;Laerm;44276;49.534;6.378;2024-03-07T01:21:23;42.46;40.89;43.81;;
56099;Laerm;44276;49.534;6.378;2024-03-07T01:23:53;42.49;41.14;43.68;;
56099;Laerm;44276;49.534;6.378;2024-03-07T01:26:21;42.50;41.06;43.63;;
56099;Laerm;44276;49.534;6.378;2024-03-07T01:28:51;43.07;41.06;50.17;;
56099;Laerm;44276;49.534;6.378;2024-03-07T01:31:21;43.24;41.14;50.85;;
56099;Laerm;44276;49.534;6.378;2024-03-07T01:33:49;42.53;40.89;43.81;;
56099;Laerm;44276;49.534;6.378;2024-03-07T01:36:18;42.55;40.80;44.11;;
56099;Laerm;44276;49.534;6.378;2024-03-07T01:38:47;42.60;41.14;44.07;;
56099;Laerm;44276;49.534;6.378;2024-03-07T01:41:16;43.08;41.30;50.65;;
56099;Laerm;44276;49.534;6.378;2024-03-07T01:43:44;42.59;41.06;43.77;;
56099;Laerm;44276;49.534;6.378;2024-03-07T01:46:13;42.65;41.30;44.94;;
56099;Laerm;44276;49.534;6.378;2024-03-07T01:48:43;42.63;41.22;44.03;;
56099;Laerm;44276;49.534;6.378;2024-03-07T01:51:14;42.74;41.22;47.65;;
56099;Laerm;44276;49.534;6.378;2024-03-07T01:53:43;43.32;41.38;53.39;;
56099;Laerm;44276;49.534;6.378;2024-03-07T01:56:12;42.66;41.30;44.03;;
56099;Laerm;44276;49.534;6.378;2024-03-07T01:58:42;42.70;41.06;44.07;;
56099;Laerm;44276;49.534;6.378;2024-03-07T02:01:11;42.76;41.14;44.80;;
56099;Laerm;44276;49.534;6.378;2024-03-07T02:03:43;42.88;41.22;48.64;;
56099;Laerm;44276;49.534;6.378;2024-03-07T02:06:11;43.02;41.53;48.48;;
56099;Laerm;44276;49.534;6.378;2024-03-07T02:08:40;42.78;41.38;44.69;;
56099;Laerm;44276;49.534;6.378;2024-03-07T02:11:08;42.85;41.53;44.51;;
56099;Laerm;44276;49.534;6.378;2024-03-07T02:13:37;42.82;41.30;44.07;;
56099;Laerm;44276;49.534;6.378;2024-03-07T02:16:06;42.82;41.53;43.99;;
56099;Laerm;44276;49.534;6.378;2024-03-07T02:18:36;43.28;41.46;50.96;;
56099;Laerm;44276;49.534;6.378;2024-03-07T02:21:08;42.85;41.68;44.27;;
56099;Laerm;44276;49.534;6.378;2024-03-07T02:23:38;42.97;41.22;45.72;;
56099;Laerm;44276;49.534;6.378;2024-03-07T02:26:08;42.97;41.53;45.86;;
56099;Laerm;44276;49.534;6.378;2024-03-07T02:28:36;42.91;41.68;43.94;;
56099;Laerm;44276;49.534;6.378;2024-03-07T02:31:04;42.92;41.53;43.99;;
56099;Laerm;44276;49.534;6.378;2024-03-07T02:33:33;43.04;41.53;45.83;;
56099;Laerm;44276;49.534;6.378;2024-03-07T02:36:01;42.96;41.68;44.27;;
56099;Laerm;44276;49.534;6.378;2024-03-07T02:38:31;43.29;41.61;49.96;;
56099;Laerm;44276;49.534;6.378;2024-03-07T02:41:01;43.04;41.22;46.07;;
56099;Laerm;44276;49.534;6.378;2024-03-07T02:43:30;43.00;41.46;44.97;;
56099;Laerm;44276;49.534;6.378;2024-03-07T02:45:58;42.96;41.68;44.11;;
56099;Laerm;44276;49.534;6.378;2024-03-07T02:48:26;42.94;41.68;44.11;;
56099;Laerm;44276;49.534;6.378;2024-03-07T02:50:56;43.03;41.53;45.33;;
56099;Laerm;44276;49.534;6.378;2024-03-07T02:53:24;42.94;41.53;44.07;;
56099;Laerm;44276;49.534;6.378;2024-03-07T02:55:54;42.94;41.46;44.07;;
56099;Laerm;44276;49.534;6.378;2024-03-07T02:58:22;42.92;41.68;44.11;;
56099;Laerm;44276;49.534;6.378;2024-03-07T03:00:58;43.05;41.46;46.10;;
56099;Laerm;44276;49.534;6.378;2024-03-07T03:03:27;43.41;41.53;50.69;;
56099;Laerm;44276;49.534;6.378;2024-03-07T03:05:58;42.92;41.46;43.94;;
56099;Laerm;44276;49.534;6.378;2024-03-07T03:08:27;43.04;41.53;46.13;;
56099;Laerm;44276;49.534;6.378;2024-03-07T03:10:57;43.16;41.46;46.97;;
56099;Laerm;44276;49.534;6.378;2024-03-07T03:13:25;42.97;41.61;45.01;;
56099;Laerm;44276;49.534;6.378;2024-03-07T03:15:55;42.98;41.53;44.54;;
56099;Laerm;44276;49.534;6.378;2024-03-07T03:18:24;42.98;41.53;44.58;;
56099;Laerm;44276;49.534;6.378;2024-03-07T03:20:52;43.27;41.68;48.29;;
56099;Laerm;44276;49.534;6.378;2024-03-07T03:23:21;43.19;41.53;49.63;;
56099;Laerm;44276;49.534;6.378;2024-03-07T03:25:49;43.04;41.75;45.63;;
56099;Laerm;44276;49.534;6.378;2024-03-07T03:28:19;43.42;41.75;51.08;;
56099;Laerm;44276;49.534;6.378;2024-03-07T03:30:49;43.03;41.46;46.05;;
56099;Laerm;44276;49.534;6.378;2024-03-07T03:33:18;42.96;41.61;44.97;;
56099;Laerm;44276;49.534;6.378;2024-03-07T03:35:48;43.16;41.38;46.80;;
56099;Laerm;44276;49.534;6.378;2024-03-07T03:38:16;42.94;41.41;45.36;;
56099;Laerm;44276;49.534;6.378;2024-03-07T03:40:47;43.28;41.30;48.51;;
56099;Laerm;44276;49.534;6.378;2024-03-07T03:43:15;42.87;41.61;45.20;;
56099;Laerm;44276;49.534;6.378;2024-03-07T03:45:45;43.01;41.38;47.67;;
56099;Laerm;44276;49.534;6.378;2024-03-07T03:48:14;42.82;41.38;44.31;;
56099;Laerm;44276;49.534;6.378;2024-03-07T03:50:43;42.77;41.14;43.77;;
56099;Laerm;44276;49.534;6.378;2024-03-07T03:53:13;42.88;41.30;44.90;;
56099;Laerm;44276;49.534;6.378;2024-03-07T03:55:42;42.98;41.53;46.80;;
56099;Laerm;44276;49.534;6.378;2024-03-07T03:58:10;42.77;41.30;44.27;;
56099;Laerm;44276;49.534;6.378;2024-03-07T04:00:41;42.95;41.38;45.30;;
56099;Laerm;44276;49.534;6.378;2024-03-07T04:03:27;43.08;41.06;46.76;;
56099;Laerm;44276;49.534;6.378;2024-03-07T04:05:56;43.12;41.22;45.51;;
56099;Laerm;44276;49.534;6.378;2024-03-07T04:08:27;43.50;41.22;48.87;;
56099;Laerm;44276;49.534;6.378;2024-03-07T04:10:57;42.79;41.19;44.62;;
56099;Laerm;44276;49.534;6.378;2024-03-07T04:13:34;43.77;41.41;51.93;;
56099;Laerm;44276;49.534;6.378;2024-03-07T04:16:04;43.00;41.30;46.02;;
56099;Laerm;44276;49.534;6.378;2024-03-07T04:18:35;43.14;41.14;46.22;;
56099;Laerm;44276;49.534;6.378;2024-03-07T04:21:24;43.35;41.19;49.36;;
56099;Laerm;44276;49.534;6.378;2024-03-07T04:23:55;43.33;41.46;47.57;;
56099;Laerm;44276;49.534;6.378;2024-03-07T04:26:26;43.60;41.30;47.91;;
56099;Laerm;44276;49.534;6.378;2024-03-07T04:28:57;43.67;41.22;48.13;;
56099;Laerm;44276;49.534;6.378;2024-03-07T04:31:25;43.22;41.22;45.91;;
56099;Laerm;44276;49.534;6.378;2024-03-07T04:33:55;43.35;41.22;47.42;;
56099;Laerm;44276;49.534;6.378;2024-03-07T04:36:23;43.64;41.38;49.02;;
56099;Laerm;44276;49.534;6.378;2024-03-07T04:38:52;43.31;41.14;47.84;;
56099;Laerm;44276;49.534;6.378;2024-03-07T04:41:21;43.46;40.89;48.52;;
56099;Laerm;44276;49.534;6.378;2024-03-07T04:43:49;43.41;41.46;49.44;;
56099;Laerm;44276;49.534;6.378;2024-03-07T04:46:17;42.91;41.14;45.54;;
56099;Laerm;44276;49.534;6.378;2024-03-07T04:48:46;43.73;41.38;47.54;;
56099;Laerm;44276;49.534;6.378;2024-03-07T04:51:15;43.83;41.33;52.16;;
56099;Laerm;44276;49.534;6.378;2024-03-07T04:53:44;43.80;41.48;49.67;;
56099;Laerm;44276;49.534;6.378;2024-03-07T04:56:12;44.10;41.30;57.30;;
56099;Laerm;44276;49.534;6.378;2024-03-07T04:58:41;43.27;41.14;48.16;;
56099;Laerm;44276;49.534;6.378;2024-03-07T05:01:09;43.45;41.14;46.91;;
56099;Laerm;44276;49.534;6.378;2024-03-07T05:03:38;43.78;41.53;50.06;;
56099;Laerm;44276;49.534;6.378;2024-03-07T05:06:06;43.65;41.46;48.95;;
56099;Laerm;44276;49.534;6.378;2024-03-07T05:08:36;43.48;41.14;48.78;;
56099;Laerm;44276;49.534;6.378;2024-03-07T05:11:04;43.71;41.30;48.40;;
56099;Laerm;44276;49.534;6.378;2024-03-07T05:13:33;43.61;41.38;47.50;;
56099;Laerm;44276;49.534;6.378;2024-03-07T05:16:01;45.12;41.53;57.45;;
56099;Laerm;44276;49.534;6.378;2024-03-07T05:18:29;44.96;41.46;61.41;;
56099;Laerm;44276;49.534;6.378;2024-03-07T05:20:58;43.55;41.22;49.74;;
56099;Laerm;44276;49.534;6.378;2024-03-07T05:23:48;43.38;41.30;46.91;;
56099;Laerm;44276;49.534;6.378;2024-03-07T05:26:17;43.74;41.38;49.05;;
56099;Laerm;44276;49.534;6.378;2024-03-07T05:28:45;43.58;41.46;47.55;;
56099;Laerm;44276;49.534;6.378;2024-03-07T05:31:13;43.80;41.38;51.87;;
56099;Laerm;44276;49.534;6.378;2024-03-07T05:33:42;43.96;40.89;50.54;;
56099;Laerm;44276;49.534;6.378;2024-03-07T05:36:10;43.77;41.14;49.94;;
56099;Laerm;44276;49.534;6.378;2024-03-07T05:38:41;43.48;41.30;48.13;;
56099;Laerm;44276;49.534;6.378;2024-03-07T05:41:12;43.40;40.98;47.63;;
56099;Laerm;44276;49.534;6.378;2024-03-07T05:43:41;43.57;40.89;49.73;;
56099;Laerm;44276;49.534;6.378;2024-03-07T05:46:10;43.01;41.14;46.64;;
56099;Laerm;44276;49.534;6.378;2024-03-07T05:48:39;43.85;41.22;49.29;;
56099;Laerm;44276;49.534;6.378;2024-03-07T05:51:07;43.86;41.53;48.56;;
56099;Laerm;44276;49.534;6.378;2024-03-07T05:53:37;43.90;41.61;48.03;;
56099;Laerm;44276;49.534;6.378;2024-03-07T05:56:06;44.00;41.22;50.25;;
56099;Laerm;44276;49.534;6.378;2024-03-07T05:58:38;44.40;41.30;50.00;;
56099;Laerm;44276;49.534;6.378;2024-03-07T06:01:06;43.26;41.38;47.81;;
56099;Laerm;44276;49.534;6.378;2024-03-07T06:03:35;44.43;41.53;52.18;;
56099;Laerm;44276;49.534;6.378;2024-03-07T06:06:04;43.81;41.68;46.71;;
56099;Laerm;44276;49.534;6.378;2024-03-07T06:08:38;44.36;41.46;54.67;;
56099;Laerm;44276;49.534;6.378;2024-03-07T06:11:09;43.51;41.53;47.26;;
56099;Laerm;44276;49.534;6.378;2024-03-07T06:13:39;43.57;41.06;47.38;;
56099;Laerm;44276;49.534;6.378;2024-03-07T06:16:08;43.61;41.30;48.49;;
56099;Laerm;44276;49.534;6.378;2024-03-07T06:18:36;43.29;41.38;48.03;;
56099;Laerm;44276;49.534;6.378;2024-03-07T06:21:04;43.92;41.68;49.92;;
56099;Laerm;44276;49.534;6.378;2024-03-07T06:23:33;44.00;41.68;49.60;;
56099;Laerm;44276;49.534;6.378;2024-03-07T06:26:02;44.29;41.96;48.16;;
56099;Laerm;44276;49.534;6.378;2024-03-07T06:28:41;44.59;41.68;51.54;;
56099;Laerm;44276;49.534;6.378;2024-03-07T06:31:09;43.52;41.30;48.95;;
56099;Laerm;44276;49.534;6.378;2024-03-07T06:33:38;43.55;41.53;47.46;;
56099;Laerm;44276;49.534;6.378;2024-03-07T06:36:06;43.92;41.38;51.75;;
56099;Laerm;44276;49.534;6.378;2024-03-07T06:38:36;44.02;41.82;54.50;;
56099;Laerm;44276;49.534;6.378;2024-03-07T06:41:04;43.90;41.61;48.73;;
56099;Laerm;44276;49.534;6.378;2024-03-07T06:43:33;44.04;41.96;49.85;;
56099;Laerm;44276;49.534;6.378;2024-03-07T06:46:03;44.20;41.82;56.23;;
56099;Laerm;44276;49.534;6.378;2024-03-07T06:48:31;43.59;41.75;47.54;;
56099;Laerm;44276;49.534;6.378;2024-03-07T06:51:00;44.01;41.55;49.40;;
56099;Laerm;44276;49.534;6.378;2024-03-07T06:53:28;43.56;41.61;47.30;;
56099;Laerm;44276;49.534;6.378;2024-03-07T06:55:57;44.02;41.61;48.69;;
56099;Laerm;44276;49.534;6.378;2024-03-07T06:58:25;43.58;41.53;47.74;;
56099;Laerm;44276;49.534;6.378;2024-03-07T07:00:57;43.79;41.75;47.61;;
56099;Laerm;44276;49.534;6.378;2024-03-07T07:03:28;43.55;41.22;45.91;;
56099;Laerm;44276;49.534;6.378;2024-03-07T07:05:57;43.69;41.68;46.45;;
56099;Laerm;44276;49.534;6.378;2024-03-07T07:08:26;43.77;41.82;48.71;;
56099;Laerm;44276;49.534;6.378;2024-03-07T07:10:56;43.76;41.75;49.20;;
56099;Laerm;44276;49.534;6.378;2024-03-07T07:13:25;44.02;41.89;52.57;;
56099;Laerm;44276;49.534;6.378;2024-03-07T07:15:53;43.73;41.53;47.18;;
56099;Laerm;44276;49.534;6.378;2024-03-07T07:18:21;43.46;41.68;46.35;;
56099;Laerm;44276;49.534;6.378;2024-03-07T07:20:52;43.88;41.96;46.93;;
56099;Laerm;44276;49.534;6.378;2024-03-07T07:23:21;43.34;41.75;45.54;;
56099;Laerm;44276;49.534;6.378;2024-03-07T07:25:50;43.51;41.89;47.86;;
56099;Laerm;44276;49.534;6.378;2024-03-07T07:28:18;43.71;41.75;47.18;;
56099;Laerm;44276;49.534;6.378;2024-03-07T07:30:46;43.72;41.89;49.62;;
56099;Laerm;44276;49.534;6.378;2024-03-07T07:33:15;43.92;42.13;48.64;;
56099;Laerm;44276;49.534;6.378;2024-03-07T07:35:45;43.61;41.82;48.98;;
56099;Laerm;44276;49.534;6.378;2024-03-07T07:38:15;43.68;41.96;49.36;;
56099;Laerm;44276;49.534;6.378;2024-03-07T07:40:43;43.53;42.03;46.69;;
56099;Laerm;44276;49.534;6.378;2024-03-07T07:43:12;43.61;42.16;47.00;;
56099;Laerm;44276;49.534;6.378;2024-03-07T07:45:52;43.97;42.22;49.07;;
56099;Laerm;44276;49.534;6.378;2024-03-07T07:48:20;43.57;41.96;45.97;;
56099;Laerm;44276;49.534;6.378;2024-03-07T07:50:49;43.57;41.82;45.99;;
56099;Laerm;44276;49.534;6.378;2024-03-07T07:53:20;43.94;41.89;48.49;;
56099;Laerm;44276;49.534;6.378;2024-03-07T07:55:48;43.83;42.29;47.00;;
56099;Laerm;44276;49.534;6.378;2024-03-07T07:58:16;43.97;42.41;47.18;;
56099;Laerm;44276;49.534;6.378;2024-03-07T08:00:45;43.85;42.29;46.10;;
56099;Laerm;44276;49.534;6.378;2024-03-07T08:03:16;43.89;42.47;46.23;;
56099;Laerm;44276;49.534;6.378;2024-03-07T08:05:45;43.85;42.53;45.36;;
56099;Laerm;44276;49.534;6.378;2024-03-07T08:08:13;44.01;42.47;46.28;;
56099;Laerm;44276;49.534;6.378;2024-03-07T08:10:45;44.12;42.59;46.73;;
56099;Laerm;44276;49.534;6.378;2024-03-07T08:13:15;44.07;42.59;46.55;;
56099;Laerm;44276;49.534;6.378;2024-03-07T08:15:43;43.99;42.47;46.33;;
56099;Laerm;44276;49.534;6.378;2024-03-07T08:18:12;44.02;42.59;45.75;;
56099;Laerm;44276;49.534;6.378;2024-03-07T08:20:41;44.07;42.53;45.57;;
56099;Laerm;44276;49.534;6.378;2024-03-07T08:23:10;43.95;42.71;45.30;;
56099;Laerm;44276;49.534;6.378;2024-03-07T08:25:40;44.03;42.47;45.54;;
56099;Laerm;44276;49.534;6.378;2024-03-07T08:28:10;44.13;42.76;48.61;;
56099;Laerm;44276;49.534;6.378;2024-03-07T08:30:38;43.99;42.47;45.45;;
56099;Laerm;44276;49.534;6.378;2024-03-07T08:33:07;43.98;42.65;46.05;;
56099;Laerm;44276;49.534;6.378;2024-03-07T08:35:37;43.88;42.41;46.10;;
56099;Laerm;44276;49.534;6.378;2024-03-07T08:38:05;43.84;42.59;45.27;;
56099;Laerm;44276;49.534;6.378;2024-03-07T08:40:36;43.71;42.22;45.97;;
56099;Laerm;44276;49.534;6.378;2024-03-07T08:43:04;43.70;42.16;46.57;;
56099;Laerm;44276;49.534;6.378;2024-03-07T08:45:36;43.73;41.82;47.65;;
56099;Laerm;44276;49.534;6.378;2024-03-07T08:48:05;43.39;41.96;46.40;;
56099;Laerm;44276;49.534;6.378;2024-03-07T08:50:35;43.24;41.38;45.94;;
56099;Laerm;44276;49.534;6.378;2024-03-07T08:53:06;43.09;41.30;49.21;;
56099;Laerm;44276;49.534;6.378;2024-03-07T08:55:36;42.92;41.22;45.83;;
56099;Laerm;44276;49.534;6.378;2024-03-07T08:58:04;42.57;40.62;46.62;;
56099;Laerm;44276;49.534;6.378;2024-03-07T09:00:36;42.24;40.43;44.19;;
56099;Laerm;44276;49.534;6.378;2024-03-07T09:03:06;42.16;39.92;45.34;;
56099;Laerm;44276;49.534;6.378;2024-03-07T09:05:39;42.24;39.92;46.71;;
56099;Laerm;44276;49.534;6.378;2024-03-07T09:08:08;42.09;40.03;44.76;;
56099;Laerm;44276;49.534;6.378;2024-03-07T09:10:37;42.05;39.70;44.07;;
56099;Laerm;44276;49.534;6.378;2024-03-07T09:13:08;42.34;39.46;46.35;;
56099;Laerm;44276;49.534;6.378;2024-03-07T09:15:38;42.41;39.46;48.77;;
56099;Laerm;44276;49.534;6.378;2024-03-07T09:18:06;42.05;39.21;45.27;;
56099;Laerm;44276;49.534;6.378;2024-03-07T09:20:36;42.61;39.46;50.86;;
56099;Laerm;44276;49.534;6.378;2024-03-07T09:23:05;42.56;39.70;45.11;;
56099;Laerm;44276;49.534;6.378;2024-03-07T09:25:34;42.57;39.70;47.81;;
56099;Laerm;44276;49.534;6.378;2024-03-07T09:28:03;42.41;39.34;46.05;;
56099;Laerm;44276;49.534;6.378;2024-03-07T09:30:33;42.67;39.58;49.00;;
56099;Laerm;44276;49.534;6.378;2024-03-07T09:33:06;42.80;39.34;47.68;;
56099;Laerm;44276;49.534;6.378;2024-03-07T09:35:39;42.95;39.92;49.77;;
56099;Laerm;44276;49.534;6.378;2024-03-07T09:38:07;43.08;39.46;54.61;;
56099;Laerm;44276;49.534;6.378;2024-03-07T09:40:35;42.74;38.52;46.10;;
56099;Laerm;44276;49.534;6.378;2024-03-07T09:43:06;43.18;38.05;51.01;;
56099;Laerm;44276;49.534;6.378;2024-03-07T09:45:38;43.10;37.52;47.62;;
56099;Laerm;44276;49.534;6.378;2024-03-07T09:48:08;43.14;38.95;48.37;;
56099;Laerm;44276;49.534;6.378;2024-03-07T09:50:38;43.25;39.70;48.88;;
56099;Laerm;44276;49.534;6.378;2024-03-07T09:53:08;43.03;39.08;49.91;;
56099;Laerm;44276;49.534;6.378;2024-03-07T09:55:37;43.11;39.81;46.33;;
56099;Laerm;44276;49.534;6.378;2024-03-07T09:58:06;43.32;39.08;46.73;;
56099;Laerm;44276;49.534;6.378;2024-03-07T10:00:37;44.40;41.38;51.09;;
56099;Laerm;44276;49.534;6.378;2024-03-07T10:03:12;44.55;40.80;49.80;;
56099;Laerm;44276;49.534;6.378;2024-03-07T10:05:42;44.12;38.95;47.55;;
56099;Laerm;44276;49.534;6.378;2024-03-07T10:08:10;44.36;39.21;49.24;;
56099;Laerm;44276;49.534;6.378;2024-03-07T10:10:39;44.26;40.33;53.96;;
56099;Laerm;44276;49.534;6.378;2024-03-07T10:13:08;44.76;39.70;50.44;;
56099;Laerm;44276;49.534;6.378;2024-03-07T10:15:36;45.14;38.05;50.34;;
56099;Laerm;44276;49.534;6.378;2024-03-07T10:18:08;44.42;37.88;47.55;;
56099;Laerm;44276;49.534;6.378;2024-03-07T10:20:37;44.15;39.70;48.39;;
56099;Laerm;44276;49.534;6.378;2024-03-07T10:23:09;44.07;38.52;50.03;;
56099;Laerm;44276;49.534;6.378;2024-03-07T10:25:37;43.59;38.21;48.25;;
56099;Laerm;44276;49.534;6.378;2024-03-07T10:28:08;42.95;37.70;46.69;;
56099;Laerm;44276;49.534;6.378;2024-03-07T10:30:41;43.36;34.31;50.23;;
56099;Laerm;44276;49.534;6.378;2024-03-07T10:33:13;43.40;35.04;49.06;;
56099;Laerm;44276;49.534;6.378;2024-03-07T10:35:42;43.04;36.45;48.57;;
56099;Laerm;44276;49.534;6.378;2024-03-07T10:38:10;42.94;36.45;52.51;;
56099;Laerm;44276;49.534;6.378;2024-03-07T10:40:42;43.00;34.31;51.94;;
56099;Laerm;44276;49.534;6.378;2024-03-07T10:43:11;42.92;35.36;52.38;;
56099;Laerm;44276;49.534;6.378;2024-03-07T10:45:45;43.87;36.45;53.94;;
56099;Laerm;44276;49.534;6.378;2024-03-07T10:48:19;43.97;35.36;54.57;;
56099;Laerm;44276;49.534;6.378;2024-03-07T10:51:05;44.32;35.04;54.77;;
56099;Laerm;44276;49.534;6.378;2024-03-07T10:53:52;44.34;33.44;54.92;;
56099;Laerm;44276;49.534;6.378;2024-03-07T10:56:41;44.79;34.69;57.56;;
56099;Laerm;44276;49.534;6.378;2024-03-07T10:59:18;47.16;38.05;60.13;;
56099;Laerm;44276;49.534;6.378;2024-03-07T11:01:54;44.61;36.20;57.98;;
56099;Laerm;44276;49.534;6.378;2024-03-07T11:04:25;45.62;34.69;56.68;;
56099;Laerm;44276;49.534;6.378;2024-03-07T11:06:54;48.52;36.45;63.61;;
56099;Laerm;44276;49.534;6.378;2024-03-07T11:09:23;47.39;36.69;57.17;;
56099;Laerm;44276;49.534;6.378;2024-03-07T11:11:56;49.92;38.74;62.18;;
56099;Laerm;44276;49.534;6.378;2024-03-07T11:14:28;50.59;36.20;63.68;;
56099;Laerm;44276;49.534;6.378;2024-03-07T11:16:57;49.32;38.81;61.37;;
56099;Laerm;44276;49.534;6.378;2024-03-07T11:19:28;47.80;38.05;58.38;;
56099;Laerm;44276;49.534;6.378;2024-03-07T11:21:58;48.88;36.69;61.35;;
56099;Laerm;44276;49.534;6.378;2024-03-07T11:24:30;49.34;38.18;63.30;;
56099;Laerm;44276;49.534;6.378;2024-03-07T11:27:04;48.58;38.21;60.21;;
56099;Laerm;44276;49.534;6.378;2024-03-07T11:29:45;48.07;35.94;61.37;;
56099;Laerm;44276;49.534;6.378;2024-03-07T11:32:16;50.57;35.04;62.50;;
56099;Laerm;44276;49.534;6.378;2024-03-07T11:34:46;46.45;38.37;59.76;;
56099;Laerm;44276;49.534;6.378;2024-03-07T11:37:18;45.81;37.32;52.09;;
56099;Laerm;44276;49.534;6.378;2024-03-07T11:39:50;48.26;35.94;61.11;;
56099;Laerm;44276;49.534;6.378;2024-03-07T11:42:25;46.05;33.90;59.64;;
56099;Laerm;44276;49.534;6.378;2024-03-07T11:44:55;49.32;36.20;64.42;;
56099;Laerm;44276;49.534;6.378;2024-03-07T11:47:25;48.98;34.31;65.76;;
56099;Laerm;44276;49.534;6.378;2024-03-07T11:49:57;50.00;37.32;60.89;;
56099;Laerm;44276;49.534;6.378;2024-03-07T11:52:26;46.93;35.94;60.49;;
56099;Laerm;44276;49.534;6.378;2024-03-07T11:54:55;48.05;33.90;61.43;;
56099;Laerm;44276;49.534;6.378;2024-03-07T11:57:31;47.30;33.44;61.85;;
56099;Laerm;44276;49.534;6.378;2024-03-07T12:00:02;47.25;33.90;58.36;;
56099;Laerm;44276;49.534;6.378;2024-03-07T12:02:37;49.62;32.35;64.87;;
56099;Laerm;44276;49.534;6.378;2024-03-07T12:05:08;52.20;33.90;65.24;;
56099;Laerm;44276;49.534;6.378;2024-03-07T12:07:37;51.44;33.90;64.40;;
56099;Laerm;44276;49.534;6.378;2024-03-07T12:10:06;51.01;36.45;63.20;;
56099;Laerm;44276;49.534;6.378;2024-03-07T12:12:34;49.36;35.36;62.78;;
56099;Laerm;44276;49.534;6.378;2024-03-07T12:15:08;44.11;37.35;54.34;;
56099;Laerm;44276;49.534;6.378;2024-03-07T12:17:45;52.68;36.45;63.52;;
56099;Laerm;44276;49.534;6.378;2024-03-07T12:20:18;53.57;33.44;65.07;;
56099;Laerm;44276;49.534;6.378;2024-03-07T12:22:58;51.68;38.05;62.47;;
56099;Laerm;44276;49.534;6.378;2024-03-07T12:25:29;50.01;33.90;62.84;;
56099;Laerm;44276;49.534;6.378;2024-03-07T12:28:02;43.31;36.91;53.04;;
56099;Laerm;44276;49.534;6.378;2024-03-07T12:30:34;43.37;37.87;55.02;;
56099;Laerm;44276;49.534;6.378;2024-03-07T12:33:05;43.54;36.69;51.64;;
56099;Laerm;44276;49.534;6.378;2024-03-07T12:35:37;52.07;35.04;61.37;;
56099;Laerm;44276;49.534;6.378;2024-03-07T12:38:05;50.49;36.69;60.49;;
56099;Laerm;44276;49.534;6.378;2024-03-07T12:40:33;47.45;37.32;61.01;;
56099;Laerm;44276;49.534;6.378;2024-03-07T12:43:14;46.32;33.44;60.13;;
56099;Laerm;44276;49.534;6.378;2024-03-07T12:45:47;47.46;35.04;60.42;;
56099;Laerm;44276;49.534;6.378;2024-03-07T12:48:16;49.23;35.66;62.81;;
56099;Laerm;44276;49.534;6.378;2024-03-07T12:50:48;49.49;35.66;60.98;;
56099;Laerm;44276;49.534;6.378;2024-03-07T12:53:20;52.71;34.31;63.44;;
56099;Laerm;44276;49.534;6.378;2024-03-07T12:55:49;48.05;32.93;61.78;;
56099;Laerm;44276;49.534;6.378;2024-03-07T12:58:19;48.79;32.93;61.37;;
56099;Laerm;44276;49.534;6.378;2024-03-07T13:00:49;49.25;35.94;63.27;;
56099;Laerm;44276;49.534;6.378;2024-03-07T13:03:18;47.89;36.20;62.69;;
56099;Laerm;44276;49.534;6.378;2024-03-07T13:05:48;48.66;38.95;61.82;;
56099;Laerm;44276;49.534;6.378;2024-03-07T13:08:17;46.21;31.68;58.33;;
56099;Laerm;44276;49.534;6.378;2024-03-07T13:10:45;45.04;37.70;57.35;;
56099;Laerm;44276;49.534;6.378;2024-03-07T13:13:17;45.00;35.04;54.14;;
56099;Laerm;44276;49.534;6.378;2024-03-07T13:15:47;45.94;36.69;58.44;;
56099;Laerm;44276;49.534;6.378;2024-03-07T13:18:15;45.41;37.88;53.48;;
56099;Laerm;44276;49.534;6.378;2024-03-07T13:20:44;44.50;33.90;52.79;;
56099;Laerm;44276;49.534;6.378;2024-03-07T13:23:15;44.96;36.91;53.32;;
56099;Laerm;44276;49.534;6.378;2024-03-07T13:25:43;44.54;33.44;53.37;;
56099;Laerm;44276;49.534;6.378;2024-03-07T13:28:14;44.88;35.66;54.10;;
56099;Laerm;44276;49.534;6.378;2024-03-07T13:30:44;44.15;37.88;52.68;;
56099;Laerm;44276;49.534;6.378;2024-03-07T13:33:17;44.97;36.91;57.94;;
56099;Laerm;44276;49.534;6.378;2024-03-07T13:35:46;45.83;34.69;60.04;;
56099;Laerm;44276;49.534;6.378;2024-03-07T13:38:15;44.02;26.91;52.70;;
56099;Laerm;44276;49.534;6.378;2024-03-07T13:40:45;44.37;35.04;56.60;;
56099;Laerm;44276;49.534;6.378;2024-03-07T13:43:17;44.17;38.67;53.07;;
56099;Laerm;44276;49.534;6.378;2024-03-07T13:45:45;44.88;34.69;56.03;;
56099;Laerm;44276;49.534;6.378;2024-03-07T13:48:15;45.12;32.35;61.80;;
56099;Laerm;44276;49.534;6.378;2024-03-07T13:50:47;46.78;32.35;61.44;;
56099;Laerm;44276;49.534;6.378;2024-03-07T13:53:27;44.51;36.91;57.29;;
56099;Laerm;44276;49.534;6.378;2024-03-07T13:56:34;46.38;34.69;61.81;;
56099;Laerm;44276;49.534;6.378;2024-03-07T14:06:25;45.27;35.94;60.73;;
56099;Laerm;44276;49.534;6.378;2024-03-07T14:09:43;44.94;32.35;59.47;;